Time;durP1;ratioP1;P1;durP2;ratioP2;P2;SDS_P1;SDS_P2;PMS_P1;PMS_P2;Temp;Humidity;BMP_temperature;BMP_pressure;BME280_temperature;BME280_humidity;BME280_pressure;Samples;Min_cycle;Max_cycle;Signal;HPM_P1;HPM_P2
2021/11/04 00:01:34;;;;;;;1.40;0.70;;;;;;;6.52;89.69;94169.34;5056271;28;20037;-49
2021/11/04 00:04:03;;;;;;;1.67;0.80;;;;;;;6.63;89.34;94171.47;5044494;28;20076;-49
2021/11/04 00:06:30;;;;;;;2.05;1.00;;;;;;;6.79;88.31;94159.59;5048515;28;20071;-50
2021/11/04 00:08:57;;;;;;;3.50;1.75;;;;;;;7.22;85.88;94160.47;5052725;28;20128;-50
2021/11/04 00:11:24;;;;;;;1.85;1.05;;;;;;;6.93;86.67;94159.09;5054436;28;20114;-50
2021/11/04 00:13:51;;;;;;;1.88;0.82;;;;;;;6.70;88.88;94156.31;5050041;28;20439;-48
2021/11/04 00:16:18;;;;;;;1.17;0.80;;;;;;;6.77;88.72;94167.22;5053688;28;20043;-49
2021/11/04 00:18:45;;;;;;;2.10;1.20;;;;;;;6.65;89.70;94167.31;5053427;28;20471;-51
2021/11/04 00:21:12;;;;;;;2.90;1.10;;;;;;;6.48;89.30;94159.66;5055638;28;20127;-47
2021/11/04 00:23:40;;;;;;;2.25;0.85;;;;;;;6.46;90.25;94151.16;5048717;28;20045;-48
2021/11/04 00:26:08;;;;;;;1.95;0.90;;;;;;;6.54;90.48;94142.91;5033807;28;20481;-49
2021/11/04 00:28:35;;;;;;;1.13;0.60;;;;;;;6.49;90.74;94156.59;5070877;28;20048;-50
2021/11/04 00:31:02;;;;;;;0.80;0.70;;;;;;;6.42;90.56;94155.66;5061020;28;20417;-48
2021/11/04 00:33:29;;;;;;;1.77;0.95;;;;;;;6.36;91.35;94154.38;5052700;28;20045;-53
2021/11/04 00:35:59;;;;;;;0.93;0.80;;;;;;;6.36;91.67;94157.84;5072754;28;20048;-51
2021/11/04 00:38:26;;;;;;;1.30;0.80;;;;;;;6.42;91.63;94166.41;5053978;28;20045;-52
2021/11/04 00:40:55;;;;;;;1.10;0.75;;;;;;;6.60;90.73;94164.13;5055579;28;20399;-50
2021/11/04 00:43:22;;;;;;;1.58;0.80;;;;;;;6.84;89.15;94157.75;5053820;28;20056;-50
2021/11/04 00:45:49;;;;;;;2.42;0.90;;;;;;;6.61;90.63;94150.34;5070169;28;20049;-50
2021/11/04 00:48:16;;;;;;;1.58;0.98;;;;;;;6.57;91.23;94146.03;5064969;28;20049;-49
2021/11/04 00:50:43;;;;;;;1.25;0.85;;;;;;;6.52;90.87;94150.53;5052952;28;20138;-48
2021/11/04 00:53:10;;;;;;;1.67;0.90;;;;;;;6.53;90.99;94152.09;5044351;28;20128;-49
2021/11/04 00:55:36;;;;;;;1.52;0.80;;;;;;;6.41;90.96;94146.84;5063912;28;20132;-52
2021/11/04 00:58:03;;;;;;;1.40;0.90;;;;;;;6.41;91.15;94140.69;5072621;28;20064;-51
2021/11/04 01:00:30;;;;;;;1.15;0.90;;;;;;;6.39;92.39;94137.56;5064791;28;20069;-51
2021/11/04 01:02:57;;;;;;;1.30;0.80;;;;;;;6.56;91.71;94139.84;5069413;28;20044;-50
2021/11/04 01:05:24;;;;;;;1.23;0.70;;;;;;;6.50;91.93;94133.19;5052692;28;20071;-49
2021/11/04 01:07:51;;;;;;;1.98;1.02;;;;;;;6.51;91.67;94129.41;5052695;28;20141;-48
2021/11/04 01:10:21;;;;;;;2.20;0.90;;;;;;;6.69;90.44;94138.59;5056983;28;20119;-51
2021/11/04 01:12:51;;;;;;;1.45;0.80;;;;;;;6.86;89.19;94131.28;5029950;28;20077;-49
2021/11/04 01:15:19;;;;;;;2.03;0.90;;;;;;;7.15;88.39;94138.81;5060353;28;20040;-49
2021/11/04 01:17:47;;;;;;;1.27;0.90;;;;;;;6.99;88.28;94132.72;5059839;28;20044;-51
2021/11/04 01:20:14;;;;;;;2.00;1.02;;;;;;;6.92;89.55;94148.69;5064030;28;20044;-49
2021/11/04 01:22:41;;;;;;;1.90;1.00;;;;;;;7.31;87.07;94146.78;5044598;28;20046;-49
2021/11/04 01:25:09;;;;;;;2.13;0.90;;;;;;;7.38;87.21;94138.09;5051923;28;20067;-48
2021/11/04 01:27:36;;;;;;;1.65;1.00;;;;;;;7.49;85.84;94134.47;5072053;28;20045;-50
2021/11/04 01:30:07;;;;;;;3.03;1.00;;;;;;;7.14;87.13;94133.78;5060474;28;20067;-48
2021/11/04 01:32:34;;;;;;;1.50;0.90;;;;;;;6.68;89.88;94147.81;5032274;28;20049;-51
2021/11/04 01:35:04;;;;;;;1.67;1.05;;;;;;;6.50;91.79;94160.06;5050634;28;20163;-48
2021/11/04 01:37:31;;;;;;;1.23;0.90;;;;;;;6.54;92.00;94142.91;5072305;28;20466;-50
2021/11/04 01:39:58;;;;;;;1.58;0.88;;;;;;;6.83;90.35;94142.75;5064726;28;20490;-51
2021/11/04 01:42:25;;;;;;;2.03;1.10;;;;;;;7.12;88.04;94128.78;5051605;28;20044;-52
2021/11/04 01:44:52;;;;;;;1.10;0.80;;;;;;;6.88;89.39;94124.44;5055219;28;20036;-54
2021/11/04 01:47:19;;;;;;;2.15;1.10;;;;;;;6.89;89.25;94117.13;5086898;22;20127;-47
2021/11/04 01:49:46;;;;;;;1.58;0.90;;;;;;;6.99;88.60;94103.94;5070423;28;20045;-48
2021/11/04 01:52:13;;;;;;;1.10;0.90;;;;;;;6.91;88.25;94104.13;5069422;28;20131;-57
2021/11/04 01:54:40;;;;;;;1.27;0.90;;;;;;;6.93;88.46;94108.03;5069371;28;20068;-48
2021/11/04 01:57:08;;;;;;;1.45;0.85;;;;;;;6.66;89.56;94101.72;5069137;28;20136;-49
2021/11/04 01:59:35;;;;;;;1.48;0.80;;;;;;;6.50;89.86;94107.13;5069034;28;20607;-52
2021/11/04 02:02:10;;;;;;;1.02;0.80;;;;;;;6.28;92.46;94138.09;5070415;28;20045;-46
2021/11/04 02:04:51;;;;;;;1.45;0.77;;;;;;;6.25;92.69;94133.41;5067001;28;20172;-46
2021/11/04 02:08:09;;;;;;;1.63;0.90;;;;;;;5.95;93.74;94157.25;5063597;28;20048;-49
2021/11/04 02:10:42;;;;;;;2.88;1.00;;;;;;;6.43;92.34;94146.47;5046442;28;20068;-47
2021/11/04 02:13:18;;;;;;;0.93;0.80;;;;;;;6.41;92.29;94132.63;5066529;28;20521;-53
2021/11/04 02:15:50;;;;;;;2.05;0.93;;;;;;;6.06;93.49;94138.72;5069353;28;20060;-50
2021/11/04 02:18:19;;;;;;;1.17;0.70;;;;;;;5.78;95.61;94134.16;5068786;28;20132;-53
2021/11/04 02:20:58;;;;;;;2.05;0.88;;;;;;;6.18;94.10;94137.84;5067683;28;20132;-51
2021/11/04 02:23:43;;;;;;;1.98;1.20;;;;;;;6.45;91.75;94112.75;5059071;28;20048;-48
2021/11/04 02:26:11;;;;;;;2.17;1.00;;;;;;;6.84;88.23;94104.75;5057100;28;20040;-49
2021/11/04 02:28:40;;;;;;;1.38;0.93;;;;;;;6.03;92.06;94093.78;5072175;28;20044;-49
2021/11/04 02:31:08;;;;;;;2.38;0.98;;;;;;;6.05;91.66;94108.41;5067715;28;20067;-49
2021/11/04 02:33:38;;;;;;;1.65;1.00;;;;;;;5.67;93.57;94110.88;5073301;28;20127;-49
2021/11/04 02:36:07;;;;;;;1.42;0.85;;;;;;;5.81;92.52;94103.19;5074106;28;20055;-52
2021/11/04 02:38:35;;;;;;;0.70;0.70;;;;;;;5.71;92.05;94099.09;5073646;28;20044;-53
2021/11/04 02:41:04;;;;;;;1.10;0.70;;;;;;;5.56;91.53;94089.16;5056820;28;20049;-46
2021/11/04 02:43:33;;;;;;;0.77;0.60;;;;;;;5.36;92.18;94090.94;5064632;28;21143;-49
2021/11/04 02:46:02;;;;;;;0.60;0.60;;;;;;;5.74;88.99;94095.72;5070400;28;20135;-47
2021/11/04 02:48:29;;;;;;;1.13;0.68;;;;;;;5.57;89.70;94102.22;5074140;28;20132;-51
2021/11/04 02:50:57;;;;;;;1.23;0.60;;;;;;;5.21;91.61;94111.25;5072632;28;20509;-49
2021/11/04 02:53:28;;;;;;;1.48;0.57;;;;;;;5.25;91.91;94117.47;5067597;28;20463;-47
2021/11/04 02:55:56;;;;;;;0.47;0.40;;;;;;;5.24;90.86;94115.16;5071974;28;20041;-50
2021/11/04 02:58:25;;;;;;;2.35;0.70;;;;;;;5.20;91.43;94119.59;5073000;28;20048;-46
2021/11/04 03:01:00;;;;;;;0.57;0.50;;;;;;;5.49;89.02;94124.63;5070297;28;20175;-53
2021/11/04 03:03:27;;;;;;;0.57;0.50;;;;;;;5.12;92.05;94126.69;5068950;28;20044;-50
2021/11/04 03:05:54;;;;;;;0.77;0.50;;;;;;;4.95;93.01;94118.94;5088151;28;20049;-49
2021/11/04 03:08:24;;;;;;;0.77;0.55;;;;;;;5.11;93.44;94119.78;5074252;28;20048;-52
2021/11/04 03:10:53;;;;;;;0.40;0.40;;;;;;;5.06;92.75;94098.56;5070901;28;20039;-46
2021/11/04 03:13:20;;;;;;;0.50;0.50;;;;;;;5.12;92.57;94097.97;5070287;28;20041;-47
2021/11/04 03:15:54;;;;;;;0.50;0.50;;;;;;;5.23;91.73;94100.97;5069446;28;20052;-51
2021/11/04 03:18:23;;;;;;;0.85;0.55;;;;;;;4.91;93.66;94105.44;5063394;28;20051;-45
2021/11/04 03:20:52;;;;;;;2.10;1.15;;;;;;;5.22;92.26;94088.66;5072202;28;20632;-49
2021/11/04 03:23:19;;;;;;;0.75;0.60;;;;;;;5.50;89.27;94090.53;5064614;28;20152;-45
2021/11/04 03:25:47;;;;;;;0.75;0.60;;;;;;;5.07;92.42;94097.44;5071370;28;20048;-46
2021/11/04 03:28:15;;;;;;;1.13;0.55;;;;;;;4.92;91.57;94098.97;5071456;28;20135;-48
2021/11/04 03:30:43;;;;;;;1.25;0.50;;;;;;;4.98;93.27;94096.81;5070096;28;20063;-51
2021/11/04 03:33:11;;;;;;;0.80;0.60;;;;;;;4.90;92.60;94091.25;5067219;28;20057;-51
2021/11/04 03:35:42;;;;;;;0.50;0.50;;;;;;;5.17;91.71;94096.97;5067725;28;20119;-49
2021/11/04 03:38:11;;;;;;;1.00;0.70;;;;;;;4.96;92.87;94099.06;5073730;28;20033;-47
2021/11/04 03:40:38;;;;;;;0.60;0.60;;;;;;;5.00;91.71;94095.34;5073630;28;20040;-46
2021/11/04 03:43:07;;;;;;;1.17;0.70;;;;;;;4.67;94.31;94106.28;5057801;28;20128;-46
2021/11/04 03:45:36;;;;;;;0.90;0.60;;;;;;;4.87;93.86;94128.66;5067162;28;20695;-46
2021/11/04 03:48:05;;;;;;;0.60;0.50;;;;;;;4.98;92.10;94142.38;5073436;28;20112;-46
2021/11/04 03:50:33;;;;;;;0.88;0.43;;;;;;;5.06;93.46;94147.59;5073374;28;20136;-47
2021/11/04 03:53:01;;;;;;;0.90;0.60;;;;;;;5.18;92.55;94148.69;5054966;28;20045;-45
2021/11/04 03:55:31;;;;;;;1.02;0.50;;;;;;;5.21;91.71;94150.69;5065533;28;20041;-48
2021/11/04 03:57:59;;;;;;;1.83;0.60;;;;;;;5.19;91.80;94150.22;5072308;28;20119;-45
2021/11/04 04:00:27;;;;;;;0.77;0.57;;;;;;;5.50;89.50;94161.06;5064676;28;20049;-45
2021/11/04 04:02:54;;;;;;;1.10;0.55;;;;;;;4.92;92.85;94171.31;5069612;28;20045;-51
2021/11/04 04:05:30;;;;;;;0.88;0.70;;;;;;;5.08;91.69;94160.66;5072987;28;20140;-45
2021/11/04 04:07:57;;;;;;;1.00;0.50;;;;;;;4.99;92.20;94163.47;5073248;28;20467;-46
2021/11/04 04:10:28;;;;;;;0.65;0.50;;;;;;;4.83;93.57;94176.78;5069769;28;20052;-46
2021/11/04 04:12:55;;;;;;;0.80;0.60;;;;;;;4.98;92.00;94183.38;5072447;28;20080;-47
2021/11/04 04:15:22;;;;;;;0.75;0.60;;;;;;;4.90;92.83;94185.03;5071753;28;20127;-46
2021/11/04 04:17:49;;;;;;;1.25;0.60;;;;;;;5.29;91.66;94174.66;5071779;28;20466;-48
2021/11/04 04:20:16;;;;;;;0.93;0.63;;;;;;;5.26;91.65;94169.97;5068734;28;20498;-54
2021/11/04 04:22:44;;;;;;;0.45;0.45;;;;;;;5.19;90.49;94177.81;5069832;28;20036;-46
2021/11/04 04:25:11;;;;;;;1.50;0.90;;;;;;;5.22;90.74;94179.81;5071643;28;20516;-46
2021/11/04 04:27:38;;;;;;;1.33;0.80;;;;;;;5.30;90.75;94178.13;5070549;28;20109;-47
2021/11/04 04:30:08;;;;;;;0.68;0.65;;;;;;;5.36;90.07;94180.22;5062166;28;20073;-45
2021/11/04 04:32:35;;;;;;;1.48;0.95;;;;;;;5.54;89.61;94187.97;5066723;28;20174;-47
2021/11/04 04:35:03;;;;;;;1.55;1.10;;;;;;;5.27;91.17;94171.53;5071823;28;20050;-48
2021/11/04 04:37:32;;;;;;;1.50;0.80;;;;;;;5.47;89.63;94164.41;5071915;28;20127;-46
2021/11/04 04:39:59;;;;;;;1.23;0.90;;;;;;;5.50;89.06;94181.75;5059881;28;20498;-50
2021/11/04 04:42:26;;;;;;;1.85;1.05;;;;;;;5.38;90.32;94193.28;5053172;28;20166;-46
2021/11/04 04:44:53;;;;;;;1.33;1.00;;;;;;;5.33;91.23;94204.25;5051724;28;20135;-54
2021/11/04 04:47:20;;;;;;;1.05;0.90;;;;;;;4.82;93.89;94217.34;5069599;28;20044;-49
2021/11/04 04:49:47;;;;;;;2.08;1.02;;;;;;;4.58;95.06;94229.66;5064035;28;20124;-51
2021/11/04 04:52:14;;;;;;;1.13;0.80;;;;;;;4.57;95.61;94227.28;5062218;28;20396;-47
2021/11/04 04:54:41;;;;;;;1.20;0.73;;;;;;;4.74;95.27;94228.94;5070497;28;20041;-46
2021/11/04 04:57:08;;;;;;;1.80;1.00;;;;;;;4.76;94.44;94214.09;5070171;28;20418;-46
2021/11/04 04:59:35;;;;;;;1.33;1.00;;;;;;;5.17;92.33;94201.53;5069868;28;20071;-48
2021/11/04 05:02:02;;;;;;;1.50;1.00;;;;;;;5.36;90.91;94188.28;5064124;28;20044;-49
2021/11/04 05:04:29;;;;;;;1.45;1.00;;;;;;;4.95;92.35;94180.59;5071326;28;20044;-51
2021/11/04 05:06:56;;;;;;;1.33;0.93;;;;;;;4.93;93.23;94197.75;5069717;28;20072;-49
2021/11/04 05:09:23;;;;;;;1.60;1.10;;;;;;;4.76;93.71;94200.72;5068644;28;20064;-52
2021/11/04 05:11:50;;;;;;;1.45;1.00;;;;;;;4.54;95.27;94203.84;5069186;28;20589;-49
2021/11/04 05:14:17;;;;;;;2.15;1.17;;;;;;;4.89;93.44;94212.97;5068270;28;20052;-48
2021/11/04 05:16:44;;;;;;;1.90;1.13;;;;;;;4.91;92.71;94220.69;5069601;28;20123;-51
2021/11/04 05:19:11;;;;;;;1.85;1.02;;;;;;;4.87;93.79;94209.84;5069548;28;20066;-49
2021/11/04 05:21:38;;;;;;;2.05;0.90;;;;;;;4.78;92.97;94216.47;5086759;28;20048;-53
2021/11/04 05:24:07;;;;;;;1.08;0.85;;;;;;;4.66;93.07;94226.06;5069150;28;20048;-51
2021/11/04 05:26:35;;;;;;;1.52;0.90;;;;;;;4.73;92.79;94230.84;5068135;28;20036;-52
2021/11/04 05:29:03;;;;;;;1.48;0.93;;;;;;;4.72;93.61;94240.00;5069339;28;20047;-51
2021/11/04 05:31:31;;;;;;;0.95;0.70;;;;;;;4.47;94.76;94236.56;5057274;28;20056;-51
2021/11/04 05:33:58;;;;;;;1.20;0.65;;;;;;;4.50;93.21;94233.19;5068950;28;20048;-52
2021/11/04 05:36:26;;;;;;;1.00;0.60;;;;;;;4.56;92.82;94242.59;5068939;28;20055;-54
2021/11/04 05:38:55;;;;;;;0.85;0.70;;;;;;;4.45;94.29;94262.88;5062682;28;20052;-49
2021/11/04 05:41:22;;;;;;;0.80;0.60;;;;;;;4.54;93.82;94254.75;5070841;28;20137;-48
2021/11/04 05:43:49;;;;;;;1.20;0.70;;;;;;;4.60;93.53;94262.22;5065840;28;20076;-53
2021/11/04 05:46:16;;;;;;;1.05;0.70;;;;;;;4.52;93.89;94275.72;5069607;28;20067;-51
2021/11/04 05:48:43;;;;;;;0.68;0.57;;;;;;;4.80;92.64;94273.94;5064253;28;20056;-49
2021/11/04 05:51:11;;;;;;;1.05;0.60;;;;;;;4.97;91.98;94275.59;5068670;28;20041;-53
2021/11/04 05:53:38;;;;;;;1.77;0.73;;;;;;;4.65;93.50;94293.38;5069970;28;20135;-50
2021/11/04 05:56:04;;;;;;;0.77;0.63;;;;;;;4.71;92.37;94288.56;5069666;28;20044;-46
2021/11/04 05:58:32;;;;;;;2.30;0.60;;;;;;;4.50;92.98;94294.03;5067859;28;20043;-50
2021/11/04 06:00:59;;;;;;;0.95;0.60;;;;;;;4.35;92.58;94300.78;5067093;28;20041;-49
2021/11/04 06:03:26;;;;;;;0.57;0.50;;;;;;;4.14;93.81;94304.34;5068348;28;20082;-47
2021/11/04 06:05:53;;;;;;;0.70;0.40;;;;;;;4.23;93.61;94309.59;5069918;28;20032;-52
2021/11/04 06:08:20;;;;;;;1.10;0.60;;;;;;;4.18;92.75;94309.81;5070675;28;20040;-49
2021/11/04 06:10:47;;;;;;;0.75;0.60;;;;;;;4.36;92.16;94307.72;5063820;28;20122;-51
2021/11/04 06:13:14;;;;;;;0.45;0.45;;;;;;;4.47;90.74;94297.38;5067098;28;20125;-50
2021/11/04 06:15:41;;;;;;;0.68;0.60;;;;;;;4.28;90.92;94296.00;5066945;28;20040;-52
2021/11/04 06:18:08;;;;;;;1.35;0.80;;;;;;;4.41;91.49;94316.31;5056971;28;20106;-49
2021/11/04 06:20:35;;;;;;;0.95;0.70;;;;;;;4.39;90.96;94325.81;5070572;28;20499;-52
2021/11/04 06:23:02;;;;;;;1.10;0.75;;;;;;;4.07;91.93;94322.06;5067989;28;20047;-50
2021/11/04 06:25:29;;;;;;;1.10;0.85;;;;;;;4.24;91.16;94329.13;5066844;28;20035;-48
2021/11/04 06:27:56;;;;;;;1.15;0.90;;;;;;;4.52;90.82;94334.63;5068252;28;20071;-50
2021/11/04 06:30:23;;;;;;;2.28;1.10;;;;;;;4.95;87.20;94328.00;5064763;28;20048;-50
2021/11/04 06:32:50;;;;;;;2.15;1.10;;;;;;;4.78;88.41;94337.03;5060850;28;20037;-52
2021/11/04 06:35:17;;;;;;;1.63;1.20;;;;;;;4.68;88.02;94331.00;5070035;28;20044;-50
2021/11/04 06:37:45;;;;;;;1.45;0.90;;;;;;;4.43;90.10;94332.06;5068497;28;20074;-52
2021/11/04 06:40:12;;;;;;;1.83;1.10;;;;;;;4.48;91.22;94331.06;5066531;28;20090;-51
2021/11/04 06:42:39;;;;;;;1.13;1.02;;;;;;;4.48;89.83;94333.72;5066958;28;20058;-48
2021/11/04 06:45:07;;;;;;;2.00;1.10;;;;;;;4.64;88.60;94337.34;5067559;28;20074;-50
2021/11/04 06:47:46;;;;;;;1.73;1.17;;;;;;;4.71;88.30;94342.13;5068904;28;20036;-50
2021/11/04 06:50:17;;;;;;;1.45;1.05;;;;;;;4.66;87.41;94332.44;5069477;28;20041;-48
2021/11/04 06:52:50;;;;;;;1.90;1.17;;;;;;;4.38;88.24;94337.63;5068248;28;20132;-53
2021/11/04 06:55:17;;;;;;;3.60;1.30;;;;;;;4.56;88.70;94339.00;5066545;28;20464;-53
2021/11/04 06:57:51;;;;;;;1.92;1.30;;;;;;;4.66;87.45;94345.81;5068628;28;20379;-51
2021/11/04 07:00:19;;;;;;;;;;;;;;;4.41;89.19;94363.75;5069711;28;20135;-49
2021/11/04 07:02:51;;;;;;;1.95;1.20;;;;;;;4.25;88.82;94366.25;5069868;28;19927;-52
2021/11/04 07:05:19;;;;;;;1.55;0.93;;;;;;;4.07;91.03;94378.25;5071165;28;20437;-52
2021/11/04 07:07:54;;;;;;;1.42;0.98;;;;;;;4.16;90.37;94378.94;5071774;28;20470;-53
2021/11/04 07:10:24;;;;;;;1.30;0.85;;;;;;;4.52;87.97;94390.88;5067037;28;20123;-53
2021/11/04 07:12:51;;;;;;;3.55;1.20;;;;;;;4.35;89.07;94391.84;5071606;28;20094;-51
2021/11/04 07:15:21;;;;;;;2.75;1.30;;;;;;;4.52;87.63;94406.94;5070574;28;20083;-52
2021/11/04 07:17:49;;;;;;;2.05;1.30;;;;;;;4.28;90.09;94396.94;5054363;28;20041;-51
2021/11/04 07:20:17;;;;;;;1.27;1.10;;;;;;;4.20;89.42;94410.09;5054134;28;20037;-52
2021/11/04 07:22:50;;;;;;;1.77;1.10;;;;;;;4.58;88.94;94406.44;5071430;28;20045;-51
2021/11/04 07:25:21;;;;;;;2.67;1.40;;;;;;;4.59;87.69;94407.19;5081909;28;20037;-52
2021/11/04 07:27:54;;;;;;;1.92;1.20;;;;;;;4.58;87.12;94410.97;5072800;28;20122;-53
2021/11/04 07:30:22;;;;;;;1.92;1.10;;;;;;;4.42;87.60;94422.34;5063037;28;20130;-49
2021/11/04 07:32:55;;;;;;;1.30;1.00;;;;;;;4.69;86.23;94430.88;5072033;28;20467;-47
2021/11/04 07:35:28;;;;;;;1.83;1.20;;;;;;;4.73;86.84;94433.69;5053825;28;20069;-52
2021/11/04 07:37:56;;;;;;;1.52;0.95;;;;;;;4.63;87.22;94430.31;5071475;28;20037;-53
2021/11/04 07:40:26;;;;;;;1.60;1.10;;;;;;;4.66;86.55;94429.66;5068809;28;20512;-48
2021/11/04 07:42:54;;;;;;;1.45;1.10;;;;;;;4.85;85.47;94436.41;5070784;28;20037;-46
2021/11/04 07:45:22;;;;;;;1.35;1.10;;;;;;;4.83;86.31;94449.34;5073905;28;20119;-49
2021/11/04 07:47:50;;;;;;;1.98;1.38;;;;;;;4.72;86.55;94445.53;5109124;22;20161;-49
2021/11/04 07:50:23;;;;;;;1.67;1.20;;;;;;;4.93;86.01;94451.59;5108649;28;20039;-52
2021/11/04 07:52:50;;;;;;;1.92;1.17;;;;;;;4.61;86.74;94455.84;5105369;28;20066;-52
2021/11/04 07:55:19;;;;;;;1.55;1.10;;;;;;;4.47;87.16;94458.81;5107976;27;20053;-51
2021/11/04 07:57:46;;;;;;;1.23;1.00;;;;;;;4.73;86.50;94455.91;5121434;27;20032;-49
2021/11/04 08:00:20;;;;;;;2.17;0.98;;;;;;;4.67;87.36;94457.22;5113839;27;20047;-52
2021/11/04 08:02:47;;;;;;;1.08;0.90;;;;;;;4.84;86.78;94473.13;5101578;27;20090;-52
2021/11/04 08:05:17;;;;;;;1.20;1.00;;;;;;;4.56;87.18;94472.94;5099934;27;20445;-53
2021/11/04 08:07:45;;;;;;;0.70;0.70;;;;;;;4.50;87.21;94473.47;5096974;27;20089;-51
2021/11/04 08:10:14;;;;;;;1.10;0.88;;;;;;;4.62;86.85;94487.69;5107810;27;20499;-50
2021/11/04 08:12:41;;;;;;;1.40;0.80;;;;;;;4.50;87.02;94486.84;5105091;27;20037;-48
2021/11/04 08:15:10;;;;;;;1.40;0.85;;;;;;;4.71;85.20;94478.78;5101082;28;20075;-48
2021/11/04 08:17:38;;;;;;;1.50;0.80;;;;;;;4.69;86.53;94482.56;5101865;27;20051;-50
2021/11/04 08:20:07;;;;;;;1.13;0.73;;;;;;;4.58;87.38;94485.97;5115671;27;20050;-52
2021/11/04 08:22:35;;;;;;;1.13;0.70;;;;;;;4.40;87.84;94488.81;5102779;28;20506;-49
2021/11/04 08:25:03;;;;;;;0.63;0.60;;;;;;;4.65;86.38;94496.97;5117158;27;20070;-50
2021/11/04 08:27:32;;;;;;;0.70;0.60;;;;;;;4.65;86.77;94502.31;5115295;27;20043;-48
2021/11/04 08:30:04;;;;;;;1.58;0.80;;;;;;;4.66;85.32;94498.53;5105310;27;20055;-48
2021/11/04 08:32:31;;;;;;;1.27;0.88;;;;;;;4.63;86.25;94499.19;5092608;28;20051;-48
2021/11/04 08:34:58;;;;;;;0.55;0.55;;;;;;;4.43;85.99;94504.22;5111563;27;20126;-50
2021/11/04 08:37:25;;;;;;;1.08;0.80;;;;;;;4.58;86.25;94507.41;5111169;27;20055;-50
2021/11/04 08:39:52;;;;;;;1.67;0.82;;;;;;;4.73;85.81;94516.75;5094040;28;20123;-48
2021/11/04 08:42:19;;;;;;;0.93;0.70;;;;;;;4.63;86.33;94523.28;5093706;28;20491;-53
2021/11/04 08:44:46;;;;;;;0.70;0.60;;;;;;;4.96;84.36;94531.34;5098583;28;20040;-49
2021/11/04 08:47:13;;;;;;;0.77;0.68;;;;;;;4.84;84.96;94531.28;5097777;28;20375;-49
2021/11/04 08:49:41;;;;;;;0.50;0.50;;;;;;;4.73;86.27;94543.53;5106762;28;20036;-48
2021/11/04 08:52:08;;;;;;;1.85;0.90;;;;;;;4.78;86.19;94544.13;5102293;28;20434;-48
2021/11/04 08:54:37;;;;;;;0.90;0.75;;;;;;;4.68;86.08;94548.00;5110692;27;20045;-50
2021/11/04 08:57:04;;;;;;;1.10;0.90;;;;;;;4.66;86.40;94554.78;5113863;27;20047;-48
2021/11/04 08:59:31;;;;;;;3.22;0.70;;;;;;;5.08;83.53;94562.78;5124441;27;20049;-50
2021/11/04 09:01:58;;;;;;;1.05;0.70;;;;;;;5.04;83.64;94561.88;5099732;27;20638;-50
2021/11/04 09:04:27;;;;;;;0.85;0.60;;;;;;;4.86;84.68;94566.59;5101296;28;20130;-48
2021/11/04 09:06:54;;;;;;;0.73;0.65;;;;;;;5.05;84.02;94564.19;5093569;28;20474;-48
2021/11/04 09:09:21;;;;;;;1.52;0.80;;;;;;;4.89;83.29;94569.41;5097619;28;20048;-49
2021/11/04 09:11:49;;;;;;;0.90;0.73;;;;;;;4.71;85.17;94562.59;5096193;28;20043;-47
2021/11/04 09:14:16;;;;;;;1.67;0.95;;;;;;;4.82;85.13;94577.19;5101257;28;20114;-47
2021/11/04 09:16:43;;;;;;;0.77;0.60;;;;;;;4.84;84.22;94580.34;5092664;28;20063;-52
2021/11/04 09:19:11;;;;;;;1.08;0.85;;;;;;;4.97;84.42;94578.47;5106977;27;20431;-49
2021/11/04 09:21:38;;;;;;;1.17;0.75;;;;;;;4.86;84.96;94591.50;5110062;27;20039;-50
2021/11/04 09:24:05;;;;;;;0.63;0.50;;;;;;;4.69;84.88;94595.09;5099315;27;20052;-48
2021/11/04 09:26:34;;;;;;;1.00;0.70;;;;;;;4.78;84.62;94591.56;5107223;27;20043;-52
2021/11/04 09:29:01;;;;;;;0.65;0.50;;;;;;;4.95;83.64;94604.03;5093125;28;20055;-49
2021/11/04 09:31:28;;;;;;;1.00;0.77;;;;;;;5.10;83.63;94603.41;5094856;28;20497;-49
2021/11/04 09:33:57;;;;;;;1.00;0.70;;;;;;;5.07;82.72;94591.47;5102283;28;20586;-49
2021/11/04 09:36:29;;;;;;;1.90;0.80;;;;;;;5.30;81.70;94618.69;5095214;28;20036;-49
2021/11/04 09:38:57;;;;;;;0.90;0.73;;;;;;;5.32;82.57;94627.19;5117929;27;20520;-51
2021/11/04 09:41:24;;;;;;;1.10;0.73;;;;;;;5.24;82.19;94620.03;5092208;28;20067;-49
2021/11/04 09:43:53;;;;;;;1.00;0.80;;;;;;;5.44;81.70;94621.09;5117895;27;20096;-52
2021/11/04 09:46:21;;;;;;;1.23;0.90;;;;;;;5.43;81.80;94632.94;5116934;27;20154;-51
2021/11/04 09:48:48;;;;;;;1.52;0.80;;;;;;;5.37;82.08;94631.56;5118183;27;20046;-51
2021/11/04 09:51:15;;;;;;;0.70;0.70;;;;;;;5.41;82.63;94634.38;5096243;28;20547;-50
2021/11/04 09:53:43;;;;;;;1.13;0.90;;;;;;;5.35;82.44;94642.63;5112213;27;20074;-50
2021/11/04 09:56:10;;;;;;;1.00;0.70;;;;;;;5.56;81.69;94636.44;5107491;28;20040;-50
2021/11/04 09:58:37;;;;;;;0.77;0.70;;;;;;;5.58;82.29;94640.34;5117982;28;20043;-52
2021/11/04 10:01:17;;;;;;;2.45;1.00;;;;;;;5.82;81.29;94644.22;5119575;28;20075;-49
2021/11/04 10:03:45;;;;;;;1.92;1.10;;;;;;;5.89;79.48;94649.81;5110141;28;20100;-49
2021/11/04 10:06:23;;;;;;;2.42;1.10;;;;;;;5.88;80.46;94645.53;5092547;28;20048;-53
2021/11/04 10:08:52;;;;;;;1.50;1.00;;;;;;;6.15;79.31;94656.81;5106523;28;20039;-52
2021/11/04 10:11:20;;;;;;;1.58;1.00;;;;;;;6.07;79.45;94650.41;5113077;28;20497;-51
2021/11/04 10:13:48;;;;;;;1.58;0.98;;;;;;;6.19;78.42;94660.38;5105530;28;20036;-49
2021/11/04 10:16:18;;;;;;;2.08;0.82;;;;;;;6.14;78.98;94653.31;5100036;28;20044;-51
2021/11/04 10:18:55;;;;;;;1.00;0.90;;;;;;;6.19;79.40;94663.84;5091441;28;20059;-52
2021/11/04 10:21:43;;;;;;;1.88;1.15;;;;;;;6.15;79.64;94660.28;5099896;28;20036;-50
2021/11/04 10:24:23;;;;;;;2.58;1.20;;;;;;;6.24;79.21;94660.97;5104108;28;20075;-53
2021/11/04 10:26:55;;;;;;;2.75;1.20;;;;;;;6.17;78.94;94657.25;5100313;28;20047;-50
2021/11/04 10:29:26;;;;;;;1.70;1.10;;;;;;;6.17;79.60;94659.94;5094674;28;20130;-52
2021/11/04 10:31:56;;;;;;;3.08;1.20;;;;;;;6.23;79.78;94664.75;5096656;28;20465;-51
2021/11/04 10:34:27;;;;;;;2.08;1.05;;;;;;;6.46;77.16;94650.88;5115191;27;20039;-49
2021/11/04 10:37:21;;;;;;;1.58;1.10;;;;;;;6.18;78.68;94675.72;5114648;27;20487;-49
2021/11/04 10:39:49;;;;;;;1.30;1.10;;;;;;;6.22;77.77;94668.56;5102576;27;20036;-51
2021/11/04 10:42:16;;;;;;;2.55;1.30;;;;;;;6.09;78.52;94664.28;5091853;28;20036;-53
2021/11/04 10:44:43;;;;;;;2.13;1.60;;;;;;;5.89;77.83;94671.28;5101304;27;20056;-49
2021/11/04 10:47:21;;;;;;;2.30;1.67;;;;;;;6.09;77.74;94675.81;5117018;27;20054;-49
2021/11/04 10:49:50;;;;;;;2.10;1.50;;;;;;;6.24;76.04;94674.38;5097028;28;20047;-48
2021/11/04 10:52:23;;;;;;;2.13;1.40;;;;;;;6.20;77.44;94680.75;5094617;28;20047;-54
2021/11/04 10:54:52;;;;;;;1.85;1.40;;;;;;;6.25;77.01;94689.38;5093987;28;20043;-49
2021/11/04 10:57:36;;;;;;;2.42;1.27;;;;;;;6.19;76.37;94681.88;5109256;27;20040;-51
2021/11/04 11:00:23;;;;;;;1.48;1.08;;;;;;;6.36;76.10;94691.63;5104680;27;20043;-51
2021/11/04 11:02:59;;;;;;;2.13;1.35;;;;;;;6.30;75.63;94681.09;5102476;28;20043;-50
2021/11/04 11:05:31;;;;;;;2.20;1.40;;;;;;;6.25;74.80;94694.75;5098932;28;20393;-48
2021/11/04 11:08:06;;;;;;;1.40;1.20;;;;;;;6.29;75.58;94692.94;5122797;27;20039;-47
2021/11/04 11:10:38;;;;;;;1.70;1.13;;;;;;;6.29;75.65;94694.84;5102857;28;20071;-51
2021/11/04 11:13:05;;;;;;;1.65;1.30;;;;;;;6.22;75.52;94691.94;5110037;28;20046;-48
2021/11/04 11:15:36;;;;;;;1.80;1.20;;;;;;;6.30;75.99;94720.59;5112864;28;20040;-48
2021/11/04 11:18:08;;;;;;;1.90;1.30;;;;;;;6.25;75.50;94710.09;5113837;28;20491;-51
2021/11/04 11:20:43;;;;;;;3.08;1.20;;;;;;;6.29;75.62;94724.41;5095324;28;20135;-49
2021/11/04 11:23:13;;;;;;;2.85;1.20;;;;;;;6.28;76.36;94728.22;5093595;28;20071;-49
2021/11/04 11:25:41;;;;;;;2.33;1.20;;;;;;;6.32;76.70;94723.75;5107055;28;20593;-51
2021/11/04 11:28:08;;;;;;;2.13;1.40;;;;;;;6.49;75.18;94728.13;5090069;28;20043;-51
2021/11/04 11:30:36;;;;;;;2.58;1.10;;;;;;;6.74;73.53;94735.06;5094900;28;20471;-51
2021/11/04 11:33:17;;;;;;;1.85;1.27;;;;;;;6.71;74.21;94724.97;5093358;28;20485;-48
2021/11/04 11:36:15;;;;;;;1.55;1.20;;;;;;;6.76;74.04;94734.75;5093725;28;20044;-49
2021/11/04 11:39:14;;;;;;;1.42;1.00;;;;;;;6.59;74.00;94735.72;5093947;28;20066;-52
2021/11/04 11:41:53;;;;;;;2.70;1.40;;;;;;;6.65;75.52;94736.28;5101023;28;20042;-52
2021/11/04 11:44:40;;;;;;;1.85;1.00;;;;;;;6.62;74.03;94751.19;5112985;28;20043;-50
2021/11/04 11:47:15;;;;;;;2.17;1.20;;;;;;;6.27;74.40;94738.19;5108000;28;20138;-49
2021/11/04 11:49:44;;;;;;;2.15;1.00;;;;;;;6.28;74.34;94733.59;5098701;28;20044;-48
2021/11/04 11:52:51;;;;;;;1.60;0.93;;;;;;;6.23;74.58;94742.63;5104652;28;20039;-50